Flight Track Log - Related Links

Times and Time Zones

All times are in EST time to prevent confusion due to time zone crossing. See the SWA1017 flight status page for this flight to view local times or setup timezone preferences in your user account.

Time Position Orientation Groundspeed Altitude Reporting Facility
EST Latitude Longitude Course Direction KTS MPH feet Rate Location/Type
Tue 07:35:12 AM 30.3028 -97.5944 58° Northeast 212 244 6,000  Level Houston Center
Tue 07:36:12 AM 30.3561 -97.5367 43° Northeast 251 289 8,600 2,479 Climbing Houston Center
Tue 07:37:13 AM 30.4153 -97.4692 45° Northeast 289 333 11,000 2,656 Climbing Houston Center
Tue 07:38:14 AM 30.4867 -97.3919 43° Northeast 343 395 14,000 2,705 Climbing Houston Center
Tue 07:39:00 AM 30.7232 -97.5106 45° Northeast  Level Estimated
Tue 07:39:15 AM 30.5608 -97.3119 43° Northeast 359 413 16,500  Level Houston Center
Tue 07:40:00 AM 30.7713 -97.4206 58° Northeast  Level FlightAware Approximate
Tue 07:40:16 AM 30.6369 -97.2219 45° Northeast 386 444 18,500  Level Houston Center
Tue 07:41:17 AM 30.7144 -97.1272 46° Northeast 401 461 20,900 1,721 Climbing Houston Center
Tue 07:42:18 AM 30.7964 -97.0308 45° Northeast 418 481 22,000 541 Climbing Houston Center
Tue 07:43:19 AM 30.8800 -96.9308 46° Northeast 430 495 22,000  Level Houston Center
Tue 07:44:20 AM 30.9639 -96.8300 46° Northeast 431 496 22,000  Level Houston Center
Tue 07:45:21 AM 31.0464 -96.7300 46° Northeast 427 491 22,000  Level Houston Center
Tue 07:46:22 AM 31.1292 -96.6314 46° Northeast 424 488 22,000  Level Houston Center
Tue 07:47:23 AM 31.2264 -96.5614 32° Northeast 425 489 22,000  Level Houston Center
Tue 07:48:24 AM 31.3528 -96.5144 18° North 406 467 22,000  Level Houston Center
Tue 07:49:25 AM 31.4611 -96.4736 18° North 406 467 22,000  Level Houston Center
Tue 07:50:26 AM 31.5714 -96.4358 16° North 407 468 22,000 -246 Level Houston Center
Tue 07:51:27 AM 31.6800 -96.3972 17° North 404 465 21,500 -1,511 Descending Houston Center
Tue 07:52:37 AM 31.8039 -96.3550 16° North 395 455 18,700 -2,262 Descending Fort Worth Center
Tue 07:53:37 AM 31.9058 -96.3219 15° North 389 448 16,600 -2,300 Descending Fort Worth Center
Tue 07:54:37 AM 32.0058 -96.2839 18° North 379 436 14,100 -2,400 Descending Fort Worth Center
Tue 07:55:37 AM 32.0994 -96.2483 18° North 363 418 11,800 -2,050 Descending Fort Worth Center
Tue 07:56:37 AM 32.1911 -96.2278 11° North 349 402 10,000 -900 Descending Fort Worth Center
Tue 07:57:37 AM 32.2708 -96.2683 337° Northwest 310 357 10,000 -50 Level Fort Worth Center
Tue 07:58:37 AM 32.3547 -96.3214 332° Northwest 317 365 9,900 -400 Descending Fort Worth Center
Tue 07:59:37 AM 32.4200 -96.3675 329° Northwest 294 338 9,200 -1,100 Descending Fort Worth Center
Tue 08:00:37 AM 32.4661 -96.4211 316° Northwest 264 304 7,700 -1,650 Descending Fort Worth Center
Tue 08:01:37 AM 32.5231 -96.4844 317° Northwest 259 298 5,900 -1,400 Descending Fort Worth Center
Tue 08:02:37 AM 32.5672 -96.5358 316° Northwest 254 292 4,900 -800 Descending Fort Worth Center
Tue 08:03:37 AM 32.6136 -96.5897 316° Northwest 223 257 4,300 -650 Descending Fort Worth Center
Tue 08:04:37 AM 32.6450 -96.6264 315° West 190 219 3,600 -700 Descending Fort Worth Center
Tue 08:05:37 AM 32.6808 -96.6681 316° Northwest 164 189 2,900 -650 Descending Fort Worth Center
Tue 08:06:37 AM 32.7081 -96.6975 318° Northwest 159 183 2,300 -350 Descending Fort Worth Center
Tue 08:07:37 AM 32.7417 -96.7367 316° Northwest 154 177 2,200 -50 Descending Fort Worth Center
Tue 08:08:37 AM 32.7711 -96.7686 318° Northwest 154 177 2,200 -300 Level Fort Worth Center
Tue 08:09:37 AM 32.7964 -96.8006 313° West 132 152 1,600 -650 Descending Fort Worth Center
Tue 08:10:37 AM 32.8175 -96.8250 316° Northwest 120 138 900 -700 Descending Fort Worth Center
Tue 08:12:00 AM 32.8333 -96.8500 301° West  Level FlightAware Approximate
Tue 08:19:00 AM 32.8471 -96.8518 301° West  Level Estimated
Tue 08:20:00 AM 32.8471 -96.8518 301° West  Level Estimated

Login

Don't have an account? Register now (free) for customized features, flight alerts, and more!